sensor_id;sensor_type;location;lat;lon;timestamp;P1;durP1;ratioP1;P2;durP2;ratioP2
2406;SDS011;37709;53.480;9.688;2022-07-23T00:00:31;3.40;;;1.37;;
2406;SDS011;37709;53.480;9.688;2022-07-23T00:03:05;2.40;;;1.30;;
2406;SDS011;37709;53.480;9.688;2022-07-23T00:05:33;2.60;;;1.20;;
2406;SDS011;37709;53.480;9.688;2022-07-23T00:08:03;3.00;;;1.43;;
2406;SDS011;37709;53.480;9.688;2022-07-23T00:10:32;2.17;;;1.20;;
2406;SDS011;37709;53.480;9.688;2022-07-23T00:12:59;1.90;;;1.53;;
2406;SDS011;37709;53.480;9.688;2022-07-23T00:15:27;2.23;;;1.60;;
2406;SDS011;37709;53.480;9.688;2022-07-23T00:17:55;2.47;;;1.40;;
2406;SDS011;37709;53.480;9.688;2022-07-23T00:20:23;2.00;;;1.60;;
2406;SDS011;37709;53.480;9.688;2022-07-23T00:22:51;4.07;;;2.00;;
2406;SDS011;37709;53.480;9.688;2022-07-23T00:25:21;2.73;;;1.63;;
2406;SDS011;37709;53.480;9.688;2022-07-23T00:27:57;4.83;;;1.93;;
2406;SDS011;37709;53.480;9.688;2022-07-23T00:30:27;3.63;;;1.80;;
2406;SDS011;37709;53.480;9.688;2022-07-23T00:32:59;2.37;;;1.43;;
2406;SDS011;37709;53.480;9.688;2022-07-23T00:35:35;2.17;;;1.47;;
2406;SDS011;37709;53.480;9.688;2022-07-23T00:38:04;2.70;;;1.43;;
2406;SDS011;37709;53.480;9.688;2022-07-23T00:40:32;2.80;;;1.87;;
2406;SDS011;37709;53.480;9.688;2022-07-23T00:43:00;3.97;;;1.50;;
2406;SDS011;37709;53.480;9.688;2022-07-23T00:45:27;2.50;;;1.40;;
2406;SDS011;37709;53.480;9.688;2022-07-23T00:47:56;4.80;;;1.70;;
2406;SDS011;37709;53.480;9.688;2022-07-23T00:50:24;3.40;;;1.70;;
2406;SDS011;37709;53.480;9.688;2022-07-23T00:52:53;8.80;;;1.90;;
2406;SDS011;37709;53.480;9.688;2022-07-23T00:55:21;3.83;;;1.50;;
2406;SDS011;37709;53.480;9.688;2022-07-23T00:57:49;3.13;;;1.67;;
2406;SDS011;37709;53.480;9.688;2022-07-23T01:00:17;4.60;;;1.80;;
2406;SDS011;37709;53.480;9.688;2022-07-23T01:02:45;3.90;;;1.77;;
2406;SDS011;37709;53.480;9.688;2022-07-23T01:05:14;2.23;;;2.00;;
2406;SDS011;37709;53.480;9.688;2022-07-23T01:07:43;3.70;;;2.00;;
2406;SDS011;37709;53.480;9.688;2022-07-23T01:10:10;4.87;;;2.30;;
2406;SDS011;37709;53.480;9.688;2022-07-23T01:12:57;3.13;;;1.80;;
2406;SDS011;37709;53.480;9.688;2022-07-23T01:15:36;3.17;;;1.77;;
2406;SDS011;37709;53.480;9.688;2022-07-23T01:18:05;6.03;;;1.80;;
2406;SDS011;37709;53.480;9.688;2022-07-23T01:20:35;4.07;;;1.70;;
2406;SDS011;37709;53.480;9.688;2022-07-23T01:23:02;7.43;;;2.20;;
2406;SDS011;37709;53.480;9.688;2022-07-23T01:25:30;2.10;;;1.20;;
2406;SDS011;37709;53.480;9.688;2022-07-23T01:28:01;2.30;;;1.60;;
2406;SDS011;37709;53.480;9.688;2022-07-23T01:30:29;3.10;;;1.60;;
2406;SDS011;37709;53.480;9.688;2022-07-23T01:32:58;2.90;;;1.90;;
2406;SDS011;37709;53.480;9.688;2022-07-23T01:35:26;2.50;;;1.67;;
2406;SDS011;37709;53.480;9.688;2022-07-23T01:37:57;5.10;;;1.97;;
2406;SDS011;37709;53.480;9.688;2022-07-23T01:40:25;3.70;;;1.97;;
2406;SDS011;37709;53.480;9.688;2022-07-23T01:42:54;2.57;;;2.10;;
2406;SDS011;37709;53.480;9.688;2022-07-23T01:45:22;2.53;;;1.43;;
2406;SDS011;37709;53.480;9.688;2022-07-23T01:47:51;5.23;;;2.00;;
2406;SDS011;37709;53.480;9.688;2022-07-23T01:50:23;3.93;;;1.50;;
2406;SDS011;37709;53.480;9.688;2022-07-23T01:53:22;2.10;;;1.60;;
2406;SDS011;37709;53.480;9.688;2022-07-23T01:55:50;3.23;;;1.90;;
2406;SDS011;37709;53.480;9.688;2022-07-23T01:58:18;4.47;;;1.80;;
2406;SDS011;37709;53.480;9.688;2022-07-23T02:00:45;2.97;;;1.70;;
2406;SDS011;37709;53.480;9.688;2022-07-23T02:03:13;1.97;;;1.87;;
2406;SDS011;37709;53.480;9.688;2022-07-23T02:05:41;3.60;;;1.93;;
2406;SDS011;37709;53.480;9.688;2022-07-23T02:08:08;2.10;;;1.90;;
2406;SDS011;37709;53.480;9.688;2022-07-23T02:10:36;2.27;;;2.07;;
2406;SDS011;37709;53.480;9.688;2022-07-23T02:13:03;4.20;;;2.63;;
2406;SDS011;37709;53.480;9.688;2022-07-23T02:15:31;7.03;;;3.20;;
2406;SDS011;37709;53.480;9.688;2022-07-23T02:17:59;4.30;;;2.60;;
2406;SDS011;37709;53.480;9.688;2022-07-23T02:20:27;3.63;;;1.90;;
2406;SDS011;37709;53.480;9.688;2022-07-23T02:22:54;4.70;;;2.27;;
2406;SDS011;37709;53.480;9.688;2022-07-23T02:25:21;4.37;;;2.67;;
2406;SDS011;37709;53.480;9.688;2022-07-23T02:27:53;4.10;;;3.00;;
2406;SDS011;37709;53.480;9.688;2022-07-23T02:30:21;2.57;;;2.37;;
2406;SDS011;37709;53.480;9.688;2022-07-23T02:32:49;2.40;;;2.20;;
2406;SDS011;37709;53.480;9.688;2022-07-23T02:35:16;4.20;;;2.70;;
2406;SDS011;37709;53.480;9.688;2022-07-23T02:37:43;3.13;;;2.47;;
2406;SDS011;37709;53.480;9.688;2022-07-23T02:40:11;3.00;;;2.53;;
2406;SDS011;37709;53.480;9.688;2022-07-23T02:42:40;3.40;;;2.60;;
2406;SDS011;37709;53.480;9.688;2022-07-23T02:45:08;2.73;;;2.40;;
2406;SDS011;37709;53.480;9.688;2022-07-23T02:47:36;2.60;;;2.40;;
2406;SDS011;37709;53.480;9.688;2022-07-23T02:50:04;3.53;;;2.93;;
2406;SDS011;37709;53.480;9.688;2022-07-23T02:52:32;5.23;;;2.90;;
2406;SDS011;37709;53.480;9.688;2022-07-23T02:55:01;5.03;;;3.00;;
2406;SDS011;37709;53.480;9.688;2022-07-23T02:57:28;3.53;;;3.23;;
2406;SDS011;37709;53.480;9.688;2022-07-23T02:59:56;7.67;;;3.00;;
2406;SDS011;37709;53.480;9.688;2022-07-23T03:02:24;6.33;;;3.67;;
2406;SDS011;37709;53.480;9.688;2022-07-23T03:04:51;4.60;;;2.93;;
2406;SDS011;37709;53.480;9.688;2022-07-23T03:07:19;4.07;;;3.00;;
2406;SDS011;37709;53.480;9.688;2022-07-23T03:09:48;4.67;;;3.20;;
2406;SDS011;37709;53.480;9.688;2022-07-23T03:12:15;4.40;;;3.07;;
2406;SDS011;37709;53.480;9.688;2022-07-23T03:14:43;4.17;;;3.00;;
2406;SDS011;37709;53.480;9.688;2022-07-23T03:20:03;4.13;;;3.43;;
2406;SDS011;37709;53.480;9.688;2022-07-23T03:22:31;6.27;;;3.37;;
2406;SDS011;37709;53.480;9.688;2022-07-23T03:24:58;6.23;;;3.23;;
2406;SDS011;37709;53.480;9.688;2022-07-23T03:27:30;5.13;;;3.63;;
2406;SDS011;37709;53.480;9.688;2022-07-23T03:29:58;5.63;;;3.23;;
2406;SDS011;37709;53.480;9.688;2022-07-23T03:32:26;5.43;;;3.20;;
2406;SDS011;37709;53.480;9.688;2022-07-23T03:34:55;4.93;;;3.47;;
2406;SDS011;37709;53.480;9.688;2022-07-23T03:37:23;6.77;;;3.47;;
2406;SDS011;37709;53.480;9.688;2022-07-23T03:39:51;7.50;;;3.63;;
2406;SDS011;37709;53.480;9.688;2022-07-23T03:42:19;5.10;;;3.80;;
2406;SDS011;37709;53.480;9.688;2022-07-23T03:44:47;6.90;;;3.93;;
2406;SDS011;37709;53.480;9.688;2022-07-23T03:47:15;6.73;;;3.30;;
2406;SDS011;37709;53.480;9.688;2022-07-23T03:49:44;3.33;;;3.00;;
2406;SDS011;37709;53.480;9.688;2022-07-23T03:52:11;3.33;;;3.00;;
2406;SDS011;37709;53.480;9.688;2022-07-23T03:54:39;6.80;;;2.93;;
2406;SDS011;37709;53.480;9.688;2022-07-23T03:57:06;5.70;;;3.23;;
2406;SDS011;37709;53.480;9.688;2022-07-23T03:59:33;4.03;;;3.53;;
2406;SDS011;37709;53.480;9.688;2022-07-23T04:02:01;3.73;;;2.93;;
2406;SDS011;37709;53.480;9.688;2022-07-23T04:04:29;4.77;;;3.30;;
2406;SDS011;37709;53.480;9.688;2022-07-23T04:06:57;3.50;;;2.57;;
2406;SDS011;37709;53.480;9.688;2022-07-23T04:09:25;4.23;;;3.60;;
2406;SDS011;37709;53.480;9.688;2022-07-23T04:11:53;5.73;;;3.60;;
2406;SDS011;37709;53.480;9.688;2022-07-23T04:14:21;4.17;;;3.37;;
2406;SDS011;37709;53.480;9.688;2022-07-23T04:16:48;4.33;;;2.90;;
2406;SDS011;37709;53.480;9.688;2022-07-23T04:19:16;4.03;;;3.23;;
2406;SDS011;37709;53.480;9.688;2022-07-23T04:21:58;4.63;;;4.10;;
2406;SDS011;37709;53.480;9.688;2022-07-23T04:24:26;3.40;;;3.07;;
2406;SDS011;37709;53.480;9.688;2022-07-23T04:26:53;5.53;;;3.83;;
2406;SDS011;37709;53.480;9.688;2022-07-23T04:29:20;4.80;;;4.10;;
2406;SDS011;37709;53.480;9.688;2022-07-23T04:31:48;5.50;;;3.77;;
2406;SDS011;37709;53.480;9.688;2022-07-23T04:34:17;5.70;;;3.73;;
2406;SDS011;37709;53.480;9.688;2022-07-23T04:36:45;6.27;;;4.10;;
2406;SDS011;37709;53.480;9.688;2022-07-23T04:39:13;4.10;;;3.37;;
2406;SDS011;37709;53.480;9.688;2022-07-23T04:41:41;4.57;;;3.70;;
2406;SDS011;37709;53.480;9.688;2022-07-23T04:44:09;4.03;;;3.70;;
2406;SDS011;37709;53.480;9.688;2022-07-23T04:46:36;6.23;;;3.87;;
2406;SDS011;37709;53.480;9.688;2022-07-23T04:49:05;4.20;;;3.80;;
2406;SDS011;37709;53.480;9.688;2022-07-23T04:51:34;4.13;;;3.73;;
2406;SDS011;37709;53.480;9.688;2022-07-23T04:54:01;3.90;;;3.50;;
2406;SDS011;37709;53.480;9.688;2022-07-23T04:56:30;3.50;;;3.23;;
2406;SDS011;37709;53.480;9.688;2022-07-23T04:58:58;5.17;;;3.70;;
2406;SDS011;37709;53.480;9.688;2022-07-23T05:01:26;3.90;;;3.40;;
2406;SDS011;37709;53.480;9.688;2022-07-23T05:03:53;4.17;;;3.73;;
2406;SDS011;37709;53.480;9.688;2022-07-23T05:06:23;3.60;;;3.27;;
2406;SDS011;37709;53.480;9.688;2022-07-23T05:08:50;7.57;;;3.70;;
2406;SDS011;37709;53.480;9.688;2022-07-23T05:11:18;3.50;;;3.20;;
2406;SDS011;37709;53.480;9.688;2022-07-23T05:13:53;6.50;;;4.10;;
2406;SDS011;37709;53.480;9.688;2022-07-23T05:16:22;4.80;;;3.83;;
2406;SDS011;37709;53.480;9.688;2022-07-23T05:18:51;5.60;;;4.13;;
2406;SDS011;37709;53.480;9.688;2022-07-23T05:21:19;4.20;;;3.40;;
2406;SDS011;37709;53.480;9.688;2022-07-23T05:23:47;4.10;;;3.40;;
2406;SDS011;37709;53.480;9.688;2022-07-23T05:26:15;5.20;;;3.70;;
2406;SDS011;37709;53.480;9.688;2022-07-23T05:28:42;3.60;;;3.27;;
2406;SDS011;37709;53.480;9.688;2022-07-23T05:31:17;3.93;;;3.50;;
2406;SDS011;37709;53.480;9.688;2022-07-23T05:33:46;5.73;;;3.73;;
2406;SDS011;37709;53.480;9.688;2022-07-23T05:36:13;4.33;;;3.93;;
2406;SDS011;37709;53.480;9.688;2022-07-23T05:38:50;3.63;;;3.43;;
2406;SDS011;37709;53.480;9.688;2022-07-23T05:41:18;3.97;;;3.53;;
2406;SDS011;37709;53.480;9.688;2022-07-23T05:43:45;3.57;;;3.27;;
2406;SDS011;37709;53.480;9.688;2022-07-23T05:46:14;5.50;;;4.40;;
2406;SDS011;37709;53.480;9.688;2022-07-23T05:48:46;4.80;;;3.87;;
2406;SDS011;37709;53.480;9.688;2022-07-23T05:51:38;5.73;;;3.83;;
2406;SDS011;37709;53.480;9.688;2022-07-23T05:54:06;4.90;;;3.50;;
2406;SDS011;37709;53.480;9.688;2022-07-23T05:56:37;3.17;;;2.97;;
2406;SDS011;37709;53.480;9.688;2022-07-23T05:59:04;4.83;;;4.13;;
2406;SDS011;37709;53.480;9.688;2022-07-23T06:01:33;4.70;;;3.80;;
2406;SDS011;37709;53.480;9.688;2022-07-23T06:04:06;7.40;;;3.27;;
2406;SDS011;37709;53.480;9.688;2022-07-23T06:06:37;3.50;;;3.20;;
2406;SDS011;37709;53.480;9.688;2022-07-23T06:09:06;3.40;;;3.10;;
2406;SDS011;37709;53.480;9.688;2022-07-23T06:11:35;4.93;;;4.07;;
2406;SDS011;37709;53.480;9.688;2022-07-23T06:14:03;3.33;;;3.03;;
2406;SDS011;37709;53.480;9.688;2022-07-23T06:16:45;4.10;;;3.10;;
2406;SDS011;37709;53.480;9.688;2022-07-23T06:19:12;4.17;;;2.83;;
2406;SDS011;37709;53.480;9.688;2022-07-23T06:21:40;2.50;;;2.30;;
2406;SDS011;37709;53.480;9.688;2022-07-23T06:24:14;3.13;;;2.07;;
2406;SDS011;37709;53.480;9.688;2022-07-23T06:26:42;3.47;;;2.17;;
2406;SDS011;37709;53.480;9.688;2022-07-23T06:29:10;1.93;;;1.83;;
2406;SDS011;37709;53.480;9.688;2022-07-23T06:31:38;2.10;;;1.87;;
2406;SDS011;37709;53.480;9.688;2022-07-23T06:34:08;1.90;;;1.80;;
2406;SDS011;37709;53.480;9.688;2022-07-23T06:36:35;2.17;;;1.90;;
2406;SDS011;37709;53.480;9.688;2022-07-23T06:39:05;1.47;;;1.13;;
2406;SDS011;37709;53.480;9.688;2022-07-23T06:41:34;5.20;;;1.50;;
2406;SDS011;37709;53.480;9.688;2022-07-23T06:44:03;1.57;;;1.00;;
2406;SDS011;37709;53.480;9.688;2022-07-23T06:46:33;1.30;;;1.10;;
2406;SDS011;37709;53.480;9.688;2022-07-23T06:49:01;2.10;;;1.33;;
2406;SDS011;37709;53.480;9.688;2022-07-23T06:51:33;1.17;;;0.90;;
2406;SDS011;37709;53.480;9.688;2022-07-23T06:54:01;1.50;;;0.70;;
2406;SDS011;37709;53.480;9.688;2022-07-23T06:56:29;1.17;;;0.87;;
2406;SDS011;37709;53.480;9.688;2022-07-23T06:58:56;1.43;;;0.87;;
2406;SDS011;37709;53.480;9.688;2022-07-23T07:01:26;1.83;;;1.07;;
2406;SDS011;37709;53.480;9.688;2022-07-23T07:03:53;1.40;;;0.83;;
2406;SDS011;37709;53.480;9.688;2022-07-23T07:06:21;3.33;;;1.30;;
2406;SDS011;37709;53.480;9.688;2022-07-23T07:08:50;1.00;;;0.80;;
2406;SDS011;37709;53.480;9.688;2022-07-23T07:11:18;3.03;;;0.90;;
2406;SDS011;37709;53.480;9.688;2022-07-23T07:13:46;1.07;;;0.93;;
2406;SDS011;37709;53.480;9.688;2022-07-23T07:16:13;1.80;;;1.10;;
2406;SDS011;37709;53.480;9.688;2022-07-23T07:18:41;1.37;;;0.80;;
2406;SDS011;37709;53.480;9.688;2022-07-23T07:21:09;1.10;;;0.80;;
2406;SDS011;37709;53.480;9.688;2022-07-23T07:23:36;1.50;;;0.70;;
2406;SDS011;37709;53.480;9.688;2022-07-23T07:26:04;1.37;;;1.00;;
2406;SDS011;37709;53.480;9.688;2022-07-23T07:28:32;1.50;;;0.73;;
2406;SDS011;37709;53.480;9.688;2022-07-23T07:31:00;0.63;;;0.50;;
2406;SDS011;37709;53.480;9.688;2022-07-23T07:33:28;0.73;;;0.60;;
2406;SDS011;37709;53.480;9.688;2022-07-23T07:35:56;2.30;;;0.77;;
2406;SDS011;37709;53.480;9.688;2022-07-23T07:38:24;1.40;;;0.70;;
2406;SDS011;37709;53.480;9.688;2022-07-23T07:40:52;2.67;;;0.90;;
2406;SDS011;37709;53.480;9.688;2022-07-23T07:43:19;2.67;;;0.83;;
2406;SDS011;37709;53.480;9.688;2022-07-23T07:45:47;1.97;;;1.00;;
2406;SDS011;37709;53.480;9.688;2022-07-23T07:48:15;1.10;;;0.60;;
2406;SDS011;37709;53.480;9.688;2022-07-23T07:50:43;1.90;;;0.97;;
2406;SDS011;37709;53.480;9.688;2022-07-23T07:53:12;1.30;;;0.50;;
2406;SDS011;37709;53.480;9.688;2022-07-23T07:55:40;0.97;;;0.50;;
2406;SDS011;37709;53.480;9.688;2022-07-23T07:58:07;0.83;;;0.50;;
2406;SDS011;37709;53.480;9.688;2022-07-23T08:00:35;1.27;;;0.80;;
2406;SDS011;37709;53.480;9.688;2022-07-23T08:03:03;1.23;;;0.60;;
2406;SDS011;37709;53.480;9.688;2022-07-23T08:05:30;2.70;;;0.80;;
2406;SDS011;37709;53.480;9.688;2022-07-23T08:07:58;0.90;;;0.50;;
2406;SDS011;37709;53.480;9.688;2022-07-23T08:10:26;1.57;;;0.60;;
2406;SDS011;37709;53.480;9.688;2022-07-23T08:12:56;0.67;;;0.50;;
2406;SDS011;37709;53.480;9.688;2022-07-23T08:15:25;0.90;;;0.40;;
2406;SDS011;37709;53.480;9.688;2022-07-23T08:17:54;0.60;;;0.40;;
2406;SDS011;37709;53.480;9.688;2022-07-23T08:20:23;1.83;;;0.57;;
2406;SDS011;37709;53.480;9.688;2022-07-23T08:25:25;1.43;;;0.70;;
2406;SDS011;37709;53.480;9.688;2022-07-23T08:27:55;0.97;;;0.50;;
2406;SDS011;37709;53.480;9.688;2022-07-23T08:30:23;1.03;;;0.60;;
2406;SDS011;37709;53.480;9.688;2022-07-23T08:35:24;1.50;;;0.83;;
2406;SDS011;37709;53.480;9.688;2022-07-23T08:37:57;1.37;;;0.50;;
2406;SDS011;37709;53.480;9.688;2022-07-23T08:40:26;1.17;;;0.53;;
2406;SDS011;37709;53.480;9.688;2022-07-23T08:42:54;0.80;;;0.40;;
2406;SDS011;37709;53.480;9.688;2022-07-23T08:45:23;1.10;;;0.50;;
2406;SDS011;37709;53.480;9.688;2022-07-23T08:47:53;1.00;;;0.50;;
2406;SDS011;37709;53.480;9.688;2022-07-23T08:50:23;2.60;;;0.60;;
2406;SDS011;37709;53.480;9.688;2022-07-23T08:52:52;1.13;;;0.60;;
2406;SDS011;37709;53.480;9.688;2022-07-23T08:55:21;1.10;;;0.57;;
2406;SDS011;37709;53.480;9.688;2022-07-23T08:57:50;0.60;;;0.47;;
2406;SDS011;37709;53.480;9.688;2022-07-23T09:00:18;1.23;;;0.47;;
2406;SDS011;37709;53.480;9.688;2022-07-23T09:02:47;0.60;;;0.50;;
2406;SDS011;37709;53.480;9.688;2022-07-23T09:05:16;2.10;;;0.60;;
2406;SDS011;37709;53.480;9.688;2022-07-23T09:10:51;0.70;;;0.60;;
2406;SDS011;37709;53.480;9.688;2022-07-23T09:13:31;2.00;;;0.60;;
2406;SDS011;37709;53.480;9.688;2022-07-23T09:16:24;1.77;;;0.60;;
2406;SDS011;37709;53.480;9.688;2022-07-23T09:18:57;2.10;;;0.73;;
2406;SDS011;37709;53.480;9.688;2022-07-23T09:21:30;2.30;;;0.67;;
2406;SDS011;37709;53.480;9.688;2022-07-23T09:24:06;1.00;;;0.50;;
2406;SDS011;37709;53.480;9.688;2022-07-23T09:26:39;1.20;;;0.80;;
2406;SDS011;37709;53.480;9.688;2022-07-23T09:29:24;1.03;;;0.60;;
2406;SDS011;37709;53.480;9.688;2022-07-23T09:31:53;0.83;;;0.50;;
2406;SDS011;37709;53.480;9.688;2022-07-23T09:36:54;1.40;;;0.50;;
2406;SDS011;37709;53.480;9.688;2022-07-23T09:39:34;1.83;;;0.60;;
2406;SDS011;37709;53.480;9.688;2022-07-23T09:45:00;0.70;;;0.47;;
2406;SDS011;37709;53.480;9.688;2022-07-23T09:47:29;0.80;;;0.50;;
2406;SDS011;37709;53.480;9.688;2022-07-23T09:52:27;0.93;;;0.40;;
2406;SDS011;37709;53.480;9.688;2022-07-23T09:55:04;0.50;;;0.30;;
2406;SDS011;37709;53.480;9.688;2022-07-23T09:57:33;2.40;;;0.50;;
2406;SDS011;37709;53.480;9.688;2022-07-23T10:00:02;0.87;;;0.40;;
2406;SDS011;37709;53.480;9.688;2022-07-23T10:02:32;1.37;;;0.40;;
2406;SDS011;37709;53.480;9.688;2022-07-23T10:05:19;1.13;;;0.40;;
2406;SDS011;37709;53.480;9.688;2022-07-23T10:08:01;0.50;;;0.30;;
2406;SDS011;37709;53.480;9.688;2022-07-23T10:10:52;1.17;;;0.40;;
2406;SDS011;37709;53.480;9.688;2022-07-23T10:13:39;0.60;;;0.50;;
2406;SDS011;37709;53.480;9.688;2022-07-23T10:16:30;1.00;;;0.60;;
2406;SDS011;37709;53.480;9.688;2022-07-23T10:18:58;1.07;;;0.40;;
2406;SDS011;37709;53.480;9.688;2022-07-23T10:24:28;1.17;;;0.40;;
2406;SDS011;37709;53.480;9.688;2022-07-23T10:36:05;0.70;;;0.40;;
2406;SDS011;37709;53.480;9.688;2022-07-23T10:41:30;2.60;;;0.50;;
2406;SDS011;37709;53.480;9.688;2022-07-23T10:44:11;1.07;;;0.40;;
2406;SDS011;37709;53.480;9.688;2022-07-23T10:46:53;0.90;;;0.50;;
2406;SDS011;37709;53.480;9.688;2022-07-23T10:49:39;1.10;;;0.30;;
2406;SDS011;37709;53.480;9.688;2022-07-23T10:54:41;1.10;;;0.43;;
2406;SDS011;37709;53.480;9.688;2022-07-23T10:57:29;0.87;;;0.33;;
2406;SDS011;37709;53.480;9.688;2022-07-23T11:02:43;1.27;;;0.30;;
2406;SDS011;37709;53.480;9.688;2022-07-23T11:05:13;0.80;;;0.30;;
2406;SDS011;37709;53.480;9.688;2022-07-23T11:10:38;1.37;;;0.40;;
2406;SDS011;37709;53.480;9.688;2022-07-23T11:24:03;1.57;;;0.40;;
2406;SDS011;37709;53.480;9.688;2022-07-23T11:31:58;1.57;;;0.40;;
2406;SDS011;37709;53.480;9.688;2022-07-23T11:34:46;1.80;;;0.90;;
2406;SDS011;37709;53.480;9.688;2022-07-23T11:37:27;0.70;;;0.43;;
2406;SDS011;37709;53.480;9.688;2022-07-23T11:39:55;0.90;;;0.43;;
2406;SDS011;37709;53.480;9.688;2022-07-23T11:42:24;1.10;;;0.77;;
2406;SDS011;37709;53.480;9.688;2022-07-23T11:44:57;0.80;;;0.50;;
2406;SDS011;37709;53.480;9.688;2022-07-23T11:47:27;0.93;;;0.60;;
2406;SDS011;37709;53.480;9.688;2022-07-23T11:50:00;1.17;;;0.83;;
2406;SDS011;37709;53.480;9.688;2022-07-23T11:52:29;1.80;;;0.60;;
2406;SDS011;37709;53.480;9.688;2022-07-23T11:54:59;1.83;;;0.90;;
2406;SDS011;37709;53.480;9.688;2022-07-23T11:57:32;1.63;;;0.60;;
2406;SDS011;37709;53.480;9.688;2022-07-23T12:00:15;0.93;;;0.60;;
2406;SDS011;37709;53.480;9.688;2022-07-23T12:02:46;0.83;;;0.53;;
2406;SDS011;37709;53.480;9.688;2022-07-23T12:05:17;1.90;;;0.70;;
2406;SDS011;37709;53.480;9.688;2022-07-23T12:07:46;1.10;;;0.73;;
2406;SDS011;37709;53.480;9.688;2022-07-23T12:12:54;0.90;;;0.60;;
2406;SDS011;37709;53.480;9.688;2022-07-23T12:15:34;1.23;;;0.70;;
2406;SDS011;37709;53.480;9.688;2022-07-23T12:18:07;3.53;;;0.70;;
2406;SDS011;37709;53.480;9.688;2022-07-23T12:20:38;1.40;;;0.70;;
2406;SDS011;37709;53.480;9.688;2022-07-23T12:23:09;1.20;;;0.60;;
2406;SDS011;37709;53.480;9.688;2022-07-23T12:25:39;2.17;;;0.80;;
2406;SDS011;37709;53.480;9.688;2022-07-23T12:28:10;1.20;;;0.80;;
2406;SDS011;37709;53.480;9.688;2022-07-23T12:30:41;1.27;;;0.80;;
2406;SDS011;37709;53.480;9.688;2022-07-23T12:33:11;1.57;;;0.77;;
2406;SDS011;37709;53.480;9.688;2022-07-23T12:35:44;2.30;;;0.70;;
2406;SDS011;37709;53.480;9.688;2022-07-23T12:38:14;1.30;;;0.60;;
2406;SDS011;37709;53.480;9.688;2022-07-23T12:43:20;0.67;;;0.50;;
2406;SDS011;37709;53.480;9.688;2022-07-23T12:48:28;1.50;;;0.87;;
2406;SDS011;37709;53.480;9.688;2022-07-23T12:50:58;2.87;;;0.70;;
2406;SDS011;37709;53.480;9.688;2022-07-23T12:53:45;1.70;;;0.83;;
2406;SDS011;37709;53.480;9.688;2022-07-23T12:56:18;2.73;;;1.17;;
2406;SDS011;37709;53.480;9.688;2022-07-23T13:01:25;1.00;;;0.70;;
2406;SDS011;37709;53.480;9.688;2022-07-23T13:06:55;2.00;;;1.00;;
2406;SDS011;37709;53.480;9.688;2022-07-23T13:09:27;1.33;;;0.80;;
2406;SDS011;37709;53.480;9.688;2022-07-23T13:11:59;2.67;;;0.83;;
2406;SDS011;37709;53.480;9.688;2022-07-23T13:14:28;0.93;;;0.63;;
2406;SDS011;37709;53.480;9.688;2022-07-23T13:16:56;0.77;;;0.60;;
2406;SDS011;37709;53.480;9.688;2022-07-23T13:19:25;3.00;;;1.00;;
2406;SDS011;37709;53.480;9.688;2022-07-23T13:21:54;0.87;;;0.63;;
2406;SDS011;37709;53.480;9.688;2022-07-23T13:24:21;1.83;;;0.60;;
2406;SDS011;37709;53.480;9.688;2022-07-23T13:26:49;3.40;;;1.20;;
2406;SDS011;37709;53.480;9.688;2022-07-23T13:29:18;3.47;;;1.43;;
2406;SDS011;37709;53.480;9.688;2022-07-23T13:31:46;1.27;;;1.00;;
2406;SDS011;37709;53.480;9.688;2022-07-23T13:34:17;1.00;;;0.60;;
2406;SDS011;37709;53.480;9.688;2022-07-23T13:36:46;2.03;;;1.00;;
2406;SDS011;37709;53.480;9.688;2022-07-23T13:39:13;1.23;;;0.60;;
2406;SDS011;37709;53.480;9.688;2022-07-23T13:41:41;0.80;;;0.50;;
2406;SDS011;37709;53.480;9.688;2022-07-23T13:44:16;2.57;;;0.60;;
2406;SDS011;37709;53.480;9.688;2022-07-23T13:46:48;1.00;;;0.70;;
2406;SDS011;37709;53.480;9.688;2022-07-23T13:49:16;1.40;;;0.60;;
2406;SDS011;37709;53.480;9.688;2022-07-23T13:51:45;1.40;;;0.70;;
2406;SDS011;37709;53.480;9.688;2022-07-23T13:54:14;0.90;;;0.57;;
2406;SDS011;37709;53.480;9.688;2022-07-23T13:56:42;1.33;;;0.53;;
2406;SDS011;37709;53.480;9.688;2022-07-23T13:59:10;1.93;;;0.87;;
2406;SDS011;37709;53.480;9.688;2022-07-23T14:01:38;1.03;;;0.70;;
2406;SDS011;37709;53.480;9.688;2022-07-23T14:04:25;1.63;;;0.60;;
2406;SDS011;37709;53.480;9.688;2022-07-23T14:06:52;0.70;;;0.47;;
2406;SDS011;37709;53.480;9.688;2022-07-23T14:09:21;3.20;;;0.50;;
2406;SDS011;37709;53.480;9.688;2022-07-23T14:11:48;0.90;;;0.50;;
2406;SDS011;37709;53.480;9.688;2022-07-23T14:14:19;1.20;;;0.80;;
2406;SDS011;37709;53.480;9.688;2022-07-23T14:16:46;1.03;;;0.50;;
2406;SDS011;37709;53.480;9.688;2022-07-23T14:19:14;1.77;;;0.70;;
2406;SDS011;37709;53.480;9.688;2022-07-23T14:21:41;1.00;;;0.57;;
2406;SDS011;37709;53.480;9.688;2022-07-23T14:24:10;0.60;;;0.40;;
2406;SDS011;37709;53.480;9.688;2022-07-23T14:26:38;1.13;;;0.60;;
2406;SDS011;37709;53.480;9.688;2022-07-23T14:29:05;0.70;;;0.43;;
2406;SDS011;37709;53.480;9.688;2022-07-23T14:31:34;1.20;;;0.80;;
2406;SDS011;37709;53.480;9.688;2022-07-23T14:34:02;1.83;;;0.60;;
2406;SDS011;37709;53.480;9.688;2022-07-23T14:36:30;1.90;;;0.80;;
2406;SDS011;37709;53.480;9.688;2022-07-23T14:38:57;0.97;;;0.70;;
2406;SDS011;37709;53.480;9.688;2022-07-23T14:41:27;1.10;;;0.63;;
2406;SDS011;37709;53.480;9.688;2022-07-23T14:43:56;1.60;;;0.70;;
2406;SDS011;37709;53.480;9.688;2022-07-23T14:46:23;1.40;;;0.90;;
2406;SDS011;37709;53.480;9.688;2022-07-23T14:48:51;1.30;;;0.70;;
2406;SDS011;37709;53.480;9.688;2022-07-23T14:51:19;0.70;;;0.47;;
2406;SDS011;37709;53.480;9.688;2022-07-23T14:53:46;1.00;;;0.47;;
2406;SDS011;37709;53.480;9.688;2022-07-23T14:56:13;1.50;;;0.40;;
2406;SDS011;37709;53.480;9.688;2022-07-23T14:58:42;2.00;;;0.60;;
2406;SDS011;37709;53.480;9.688;2022-07-23T15:01:11;2.17;;;0.60;;
2406;SDS011;37709;53.480;9.688;2022-07-23T15:03:38;1.43;;;0.63;;
2406;SDS011;37709;53.480;9.688;2022-07-23T15:06:09;1.20;;;0.80;;
2406;SDS011;37709;53.480;9.688;2022-07-23T15:08:38;1.00;;;0.83;;
2406;SDS011;37709;53.480;9.688;2022-07-23T15:11:06;0.87;;;0.70;;
2406;SDS011;37709;53.480;9.688;2022-07-23T15:13:37;1.53;;;0.60;;
2406;SDS011;37709;53.480;9.688;2022-07-23T15:16:05;1.00;;;0.70;;
2406;SDS011;37709;53.480;9.688;2022-07-23T15:18:36;1.90;;;0.50;;
2406;SDS011;37709;53.480;9.688;2022-07-23T15:21:04;2.00;;;0.70;;
2406;SDS011;37709;53.480;9.688;2022-07-23T15:23:34;1.67;;;0.70;;
2406;SDS011;37709;53.480;9.688;2022-07-23T15:26:01;1.33;;;0.60;;
2406;SDS011;37709;53.480;9.688;2022-07-23T15:28:30;1.13;;;0.70;;
2406;SDS011;37709;53.480;9.688;2022-07-23T15:30:57;1.23;;;0.60;;
2406;SDS011;37709;53.480;9.688;2022-07-23T15:33:25;1.20;;;0.57;;
2406;SDS011;37709;53.480;9.688;2022-07-23T15:35:53;1.43;;;0.83;;
2406;SDS011;37709;53.480;9.688;2022-07-23T15:38:24;2.40;;;0.60;;
2406;SDS011;37709;53.480;9.688;2022-07-23T15:40:53;1.60;;;0.80;;
2406;SDS011;37709;53.480;9.688;2022-07-23T15:43:22;1.43;;;0.87;;
2406;SDS011;37709;53.480;9.688;2022-07-23T15:45:52;2.30;;;0.97;;
2406;SDS011;37709;53.480;9.688;2022-07-23T15:48:20;1.07;;;0.70;;
2406;SDS011;37709;53.480;9.688;2022-07-23T15:50:48;2.13;;;0.80;;
2406;SDS011;37709;53.480;9.688;2022-07-23T15:53:17;0.90;;;0.70;;
2406;SDS011;37709;53.480;9.688;2022-07-23T15:56:03;1.73;;;0.90;;
2406;SDS011;37709;53.480;9.688;2022-07-23T15:58:53;3.03;;;0.70;;
2406;SDS011;37709;53.480;9.688;2022-07-23T16:01:21;1.73;;;0.90;;
2406;SDS011;37709;53.480;9.688;2022-07-23T16:03:50;1.00;;;0.90;;
2406;SDS011;37709;53.480;9.688;2022-07-23T16:06:18;1.67;;;0.60;;
2406;SDS011;37709;53.480;9.688;2022-07-23T16:08:47;1.40;;;0.73;;
2406;SDS011;37709;53.480;9.688;2022-07-23T16:11:14;1.63;;;0.67;;
2406;SDS011;37709;53.480;9.688;2022-07-23T16:13:42;3.10;;;0.83;;
2406;SDS011;37709;53.480;9.688;2022-07-23T16:16:10;3.57;;;0.90;;
2406;SDS011;37709;53.480;9.688;2022-07-23T16:18:38;2.30;;;0.80;;
2406;SDS011;37709;53.480;9.688;2022-07-23T16:21:05;2.80;;;0.90;;
2406;SDS011;37709;53.480;9.688;2022-07-23T16:23:41;1.60;;;0.73;;
2406;SDS011;37709;53.480;9.688;2022-07-23T16:26:14;1.17;;;0.70;;
2406;SDS011;37709;53.480;9.688;2022-07-23T16:28:44;1.00;;;0.70;;